createdAt,value
2019-02-15T00:00:30.866Z,4.89
2019-02-15T00:01:37.770Z,4.88
2019-02-15T00:02:41.612Z,4.83
2019-02-15T00:03:45.417Z,4.82
2019-02-15T00:04:49.483Z,4.83
2019-02-15T00:05:53.559Z,4.81
2019-02-15T00:06:57.366Z,4.83
2019-02-15T00:08:01.635Z,4.83
2019-02-15T00:09:06.689Z,4.84
2019-02-15T00:10:10.504Z,4.82
2019-02-15T00:11:14.336Z,4.84
2019-02-15T00:12:18.138Z,4.83
2019-02-15T00:13:22.045Z,4.84
2019-02-15T00:14:26.099Z,4.82
2019-02-15T00:15:30.315Z,4.82
2019-02-15T00:16:34.209Z,4.81
2019-02-15T00:18:09.164Z,4.81
2019-02-15T00:19:31.971Z,4.79
2019-02-15T00:20:39.097Z,4.76
2019-02-15T00:21:47.891Z,4.75
2019-02-15T00:22:51.707Z,4.73
2019-02-15T00:23:55.520Z,4.70
2019-02-15T00:24:59.429Z,4.70
2019-02-15T00:26:04.016Z,4.68
2019-02-15T00:27:07.938Z,4.68
2019-02-15T00:28:11.758Z,4.70
2019-02-15T00:29:15.575Z,4.69
2019-02-15T00:30:19.718Z,4.66
2019-02-15T00:31:23.820Z,4.65
2019-02-15T00:32:27.629Z,4.66
2019-02-15T00:33:31.442Z,4.65
2019-02-15T00:34:35.514Z,4.64
2019-02-15T00:35:39.419Z,4.64
2019-02-15T00:36:43.488Z,4.62
2019-02-15T00:37:47.297Z,4.68
2019-02-15T00:38:51.183Z,4.63
2019-02-15T00:39:54.991Z,4.66
2019-02-15T00:40:59.110Z,4.65
2019-02-15T00:42:03.215Z,4.60
2019-02-15T00:43:07.480Z,4.55
2019-02-15T00:44:11.234Z,4.52
2019-02-15T00:45:17.332Z,4.48
2019-02-15T00:46:43.200Z,4.54
2019-02-15T00:47:52.359Z,4.50
2019-02-15T00:48:57.099Z,4.43
2019-02-15T00:50:14.563Z,4.41
2019-02-15T00:51:38.318Z,4.42
2019-02-15T00:52:54.097Z,4.42
2019-02-15T00:54:10.982Z,4.34
2019-02-15T00:55:33.797Z,4.31
2019-02-15T00:56:59.917Z,4.28
2019-02-15T00:58:23.297Z,4.26
2019-02-15T00:59:38.218Z,4.26
2019-02-15T01:00:50.105Z,4.23
2019-02-15T01:02:13.186Z,4.28
2019-02-15T01:03:29.236Z,4.31
2019-02-15T01:05:04.397Z,4.25
2019-02-15T01:06:27.209Z,4.23
2019-02-15T01:07:39.277Z,4.15
2019-02-15T01:09:04.864Z,4.12
2019-02-15T01:10:15.569Z,4.11
2019-02-15T01:11:23.450Z,4.10
2019-02-15T01:12:36.382Z,4.12
2019-02-15T01:13:40.458Z,4.10
2019-02-15T01:14:44.923Z,4.09
2019-02-15T01:15:49.079Z,4.16
2019-02-15T01:16:52.907Z,4.16
2019-02-15T01:17:56.889Z,4.13
2019-02-15T01:19:00.947Z,4.11
2019-02-15T01:20:04.857Z,4.12
2019-02-15T01:21:09.006Z,4.14
2019-02-15T01:22:12.903Z,4.12
2019-02-15T01:23:16.781Z,4.12
2019-02-15T01:24:20.600Z,4.12
2019-02-15T01:25:26.157Z,4.13
2019-02-15T01:26:41.036Z,4.13
2019-02-15T01:27:54.790Z,4.13
2019-02-15T01:29:13.150Z,4.13
2019-02-15T01:30:41.844Z,4.14
2019-02-15T01:32:04.676Z,4.17
2019-02-15T01:33:18.878Z,4.11
2019-02-15T01:34:48.381Z,4.11
2019-02-15T01:36:23.594Z,4.10
2019-02-15T01:37:49.324Z,4.16
2019-02-15T01:39:18.578Z,4.11
2019-02-15T01:40:53.610Z,4.10
2019-02-15T01:42:18.911Z,4.00
2019-02-15T01:43:30.693Z,3.96
2019-02-15T01:44:47.800Z,3.90
2019-02-15T01:45:57.183Z,3.90
2019-02-15T01:47:08.463Z,3.91
2019-02-15T01:48:12.776Z,3.93
2019-02-15T01:49:16.583Z,3.93
2019-02-15T01:50:20.461Z,3.93
2019-02-15T01:51:24.345Z,3.94
2019-02-15T01:52:28.481Z,3.95
2019-02-15T01:53:32.296Z,3.97
2019-02-15T01:54:36.175Z,3.98
2019-02-15T01:55:39.987Z,3.99
2019-02-15T01:56:44.711Z,4.00
2019-02-15T01:57:48.526Z,4.03
2019-02-15T01:58:52.354Z,4.03
2019-02-15T01:59:56.470Z,4.02
2019-02-15T02:01:00.541Z,4.02
2019-02-15T02:02:04.636Z,4.01
2019-02-15T02:03:08.452Z,4.03
2019-02-15T02:04:12.621Z,4.03
2019-02-15T02:05:16.431Z,4.04
2019-02-15T02:06:21.102Z,4.04
2019-02-15T02:07:25.362Z,4.03
2019-02-15T02:08:29.518Z,4.03
2019-02-15T02:09:34.997Z,4.04
2019-02-15T02:10:38.806Z,4.03
2019-02-15T02:11:42.613Z,4.03
2019-02-15T02:12:46.430Z,4.02
2019-02-15T02:13:50.396Z,4.03
2019-02-15T02:14:54.467Z,4.04
2019-02-15T02:15:58.424Z,4.04
2019-02-15T02:17:02.570Z,4.04
2019-02-15T02:18:06.450Z,4.04
2019-02-15T02:19:10.523Z,4.03
2019-02-15T02:20:14.781Z,3.89
2019-02-15T02:21:18.586Z,4.03
2019-02-15T02:22:22.400Z,4.02
2019-02-15T02:23:26.263Z,4.02
2019-02-15T02:24:30.798Z,4.00
2019-02-15T02:25:34.928Z,4.02
2019-02-15T02:26:38.740Z,3.99
2019-02-15T02:27:42.545Z,4.01
2019-02-15T02:28:46.991Z,3.99
2019-02-15T02:29:51.203Z,4.02
2019-02-15T02:30:55.024Z,4.01
2019-02-15T02:31:59.087Z,3.99
2019-02-15T02:33:02.981Z,4.00
2019-02-15T02:34:06.861Z,4.00
2019-02-15T02:35:11.109Z,3.99
2019-02-15T02:36:15.307Z,3.99
2019-02-15T02:37:19.203Z,4.00
2019-02-15T02:38:23.409Z,3.99
2019-02-15T02:39:27.510Z,4.00
2019-02-15T02:40:31.395Z,4.02
2019-02-15T02:41:35.522Z,3.98
2019-02-15T02:42:39.748Z,3.84
2019-02-15T02:43:43.886Z,3.94
2019-02-15T02:44:47.793Z,3.93
2019-02-15T02:45:51.885Z,3.92
2019-02-15T02:46:56.182Z,3.92
2019-02-15T02:48:00.145Z,3.90
2019-02-15T02:49:04.055Z,3.90
2019-02-15T02:50:08.349Z,3.89
2019-02-15T02:51:12.160Z,3.88
2019-02-15T02:52:15.976Z,3.86
2019-02-15T02:53:19.888Z,3.87
2019-02-15T02:54:24.253Z,3.88
2019-02-15T02:55:28.475Z,3.86
2019-02-15T02:56:32.376Z,3.85
2019-02-15T02:57:36.177Z,3.87
2019-02-15T02:58:40.037Z,3.85
2019-02-15T02:59:43.869Z,3.85
2019-02-15T03:00:47.945Z,3.83
2019-02-15T03:01:51.752Z,3.85
2019-02-15T03:02:55.565Z,3.83
2019-02-15T03:03:59.636Z,3.82
2019-02-15T03:05:03.845Z,3.82
2019-02-15T03:06:08.101Z,3.82
2019-02-15T03:07:12.072Z,3.82
2019-02-15T03:08:15.983Z,3.82
2019-02-15T03:09:20.113Z,3.80
2019-02-15T03:10:23.941Z,3.80
2019-02-15T03:11:27.750Z,3.81
2019-02-15T03:12:31.569Z,3.80
2019-02-15T03:13:35.464Z,3.81
2019-02-15T03:14:39.546Z,3.82
2019-02-15T03:15:43.750Z,3.80
2019-02-15T03:16:47.555Z,3.79
2019-02-15T03:17:51.443Z,3.84
2019-02-15T03:18:55.332Z,3.80
2019-02-15T03:19:59.164Z,3.80
2019-02-15T03:21:03.301Z,3.80
2019-02-15T03:22:07.566Z,3.78
2019-02-15T03:23:12.230Z,3.76
2019-02-15T03:24:16.373Z,3.75
2019-02-15T03:25:20.264Z,3.74
2019-02-15T03:26:24.086Z,3.74
2019-02-15T03:27:27.892Z,3.73
2019-02-15T03:28:31.704Z,3.73
2019-02-15T03:29:35.511Z,3.73
2019-02-15T03:30:39.409Z,3.72
2019-02-15T03:31:43.235Z,3.72
2019-02-15T03:32:47.050Z,3.72
2019-02-15T03:33:50.859Z,3.72
2019-02-15T03:34:54.954Z,3.72
2019-02-15T03:36:01.245Z,3.74
2019-02-15T03:37:26.921Z,3.70
2019-02-15T03:38:52.822Z,3.68
2019-02-15T03:40:01.706Z,3.67
2019-02-15T03:41:08.397Z,3.66
2019-02-15T03:42:14.174Z,3.68
2019-02-15T03:43:17.983Z,3.64
2019-02-15T03:44:22.894Z,3.58
2019-02-15T03:45:27.382Z,3.61
2019-02-15T03:46:31.318Z,3.63
2019-02-15T03:47:35.303Z,3.57
2019-02-15T03:48:39.363Z,3.55
2019-02-15T03:49:43.793Z,3.58
2019-02-15T03:50:47.898Z,3.58
2019-02-15T03:51:51.711Z,3.58
2019-02-15T03:52:55.768Z,3.56
2019-02-15T03:53:59.579Z,3.53
2019-02-15T03:55:03.751Z,3.51
2019-02-15T03:56:07.821Z,3.37
2019-02-15T03:57:11.947Z,3.30
2019-02-15T03:58:15.826Z,3.32
2019-02-15T03:59:20.115Z,3.27
2019-02-15T04:00:24.002Z,3.28
2019-02-15T04:01:27.896Z,3.22
2019-02-15T04:02:31.724Z,3.20
2019-02-15T04:03:35.842Z,3.18
2019-02-15T04:04:39.914Z,3.19
2019-02-15T04:05:43.800Z,3.18
2019-02-15T04:06:47.887Z,3.17
2019-02-15T04:07:51.935Z,3.18
2019-02-15T04:08:55.991Z,3.18
2019-02-15T04:09:59.871Z,3.13
2019-02-15T04:11:03.772Z,3.13
2019-02-15T04:12:07.652Z,3.07
2019-02-15T04:13:11.783Z,3.11
2019-02-15T04:14:15.593Z,3.12
2019-02-15T04:15:19.474Z,3.06
2019-02-15T04:16:23.368Z,3.02
2019-02-15T04:17:27.182Z,3.00
2019-02-15T04:18:31.082Z,3.07
2019-02-15T04:19:35.222Z,3.06
2019-02-15T04:20:39.303Z,3.00
2019-02-15T04:21:43.451Z,2.98
2019-02-15T04:22:47.820Z,2.98
2019-02-15T04:23:51.976Z,3.00
2019-02-15T04:24:55.843Z,3.00
2019-02-15T04:25:59.667Z,3.02
2019-02-15T04:27:03.954Z,3.03
2019-02-15T04:28:08.400Z,3.05
2019-02-15T04:29:12.563Z,3.16
2019-02-15T04:30:16.648Z,3.16
2019-02-15T04:31:20.486Z,3.16
2019-02-15T04:32:24.285Z,3.08
2019-02-15T04:33:28.091Z,3.06
2019-02-15T04:34:32.145Z,3.05
2019-02-15T04:35:36.547Z,3.04
2019-02-15T04:36:40.387Z,3.08
2019-02-15T04:37:44.445Z,3.07
2019-02-15T04:38:48.265Z,3.13
2019-02-15T04:39:52.398Z,3.10
2019-02-15T04:40:56.451Z,3.05
2019-02-15T04:42:00.283Z,3.06
2019-02-15T04:43:04.165Z,3.06
2019-02-15T04:44:08.253Z,3.04
2019-02-15T04:45:12.131Z,3.03
2019-02-15T04:46:15.939Z,3.05
2019-02-15T04:47:19.834Z,3.06
2019-02-15T04:48:23.920Z,3.05
2019-02-15T04:49:28.688Z,3.11
2019-02-15T04:50:32.743Z,3.16
2019-02-15T04:51:36.596Z,3.10
2019-02-15T04:52:40.407Z,3.09
2019-02-15T04:53:44.466Z,3.06
2019-02-15T04:54:48.381Z,3.04
2019-02-15T04:55:52.275Z,3.03
2019-02-15T04:56:56.174Z,3.03
2019-02-15T04:58:00.267Z,3.02
2019-02-15T04:59:04.579Z,3.04
2019-02-15T05:00:08.587Z,3.10
2019-02-15T05:01:12.401Z,3.11
2019-02-15T05:02:16.303Z,3.06
2019-02-15T05:03:20.471Z,3.03
2019-02-15T05:04:24.794Z,3.01
2019-02-15T05:05:28.601Z,3.01
2019-02-15T05:06:32.492Z,3.01
2019-02-15T05:07:36.311Z,3.01
2019-02-15T05:08:40.115Z,3.04
2019-02-15T05:09:44.224Z,3.04
2019-02-15T05:10:48.026Z,3.05
2019-02-15T05:11:52.930Z,3.05
2019-02-15T05:12:56.762Z,3.04
2019-02-15T05:14:00.652Z,3.11
2019-02-15T05:15:04.610Z,3.11
2019-02-15T05:16:08.817Z,3.04
2019-02-15T05:17:12.897Z,2.99
2019-02-15T05:18:16.827Z,3.04
2019-02-15T05:19:20.853Z,2.99
2019-02-15T05:20:24.666Z,2.93
2019-02-15T05:21:28.471Z,2.84
2019-02-15T05:22:32.298Z,2.90
2019-02-15T05:23:36.097Z,2.88
2019-02-15T05:24:40.231Z,2.82
2019-02-15T05:25:44.423Z,2.82
2019-02-15T05:26:48.405Z,2.79
2019-02-15T05:27:52.568Z,2.77
2019-02-15T05:28:56.693Z,2.79
2019-02-15T05:30:00.499Z,2.72
2019-02-15T05:31:04.310Z,2.73
2019-02-15T05:32:08.452Z,2.68
2019-02-15T05:33:12.594Z,2.71
2019-02-15T05:34:16.481Z,2.77
2019-02-15T05:35:20.282Z,2.74
2019-02-15T05:36:24.421Z,2.71
2019-02-15T05:37:29.120Z,2.71
2019-02-15T05:38:33.519Z,2.70
2019-02-15T05:39:37.404Z,2.69
2019-02-15T05:40:41.543Z,2.70
2019-02-15T05:41:46.278Z,2.75
2019-02-15T05:42:50.184Z,2.65
2019-02-15T05:43:54.022Z,2.67
2019-02-15T05:45:03.604Z,2.75
2019-02-15T05:46:04.787Z,2.76
2019-02-15T05:47:08.756Z,2.71
2019-02-15T05:48:13.399Z,2.62
2019-02-15T05:49:17.210Z,2.67
2019-02-15T05:50:21.337Z,2.67
2019-02-15T05:51:25.653Z,2.68
2019-02-15T05:52:30.199Z,2.64
2019-02-15T05:53:34.653Z,2.66
2019-02-15T05:54:38.812Z,2.62
2019-02-15T05:55:42.622Z,2.59
2019-02-15T05:56:46.535Z,2.58
2019-02-15T05:57:50.655Z,2.55
2019-02-15T05:58:54.555Z,2.37
2019-02-15T05:59:58.896Z,2.64
2019-02-15T06:01:03.149Z,2.69
2019-02-15T06:02:06.967Z,2.65
2019-02-15T06:03:11.070Z,2.67
2019-02-15T06:04:15.176Z,2.63
2019-02-15T06:05:18.990Z,2.61
2019-02-15T06:06:23.994Z,2.60
2019-02-15T06:07:27.888Z,2.61
2019-02-15T06:08:31.751Z,2.64
2019-02-15T06:09:35.582Z,2.71
2019-02-15T06:10:39.799Z,2.68
2019-02-15T06:11:43.606Z,2.66
2019-02-15T06:12:47.723Z,2.64
2019-02-15T06:13:51.870Z,2.61
2019-02-15T06:14:56.232Z,2.69
2019-02-15T06:16:00.413Z,2.71
2019-02-15T06:17:04.556Z,2.69
2019-02-15T06:18:08.790Z,2.75
2019-02-15T06:19:12.932Z,2.67
2019-02-15T06:20:16.739Z,2.63
2019-02-15T06:21:20.545Z,2.61
2019-02-15T06:22:24.425Z,2.66
2019-02-15T06:23:28.607Z,2.63
2019-02-15T06:24:32.410Z,2.62
2019-02-15T06:25:36.252Z,2.60
2019-02-15T06:26:40.085Z,2.68
2019-02-15T06:27:44.152Z,2.63
2019-02-15T06:28:48.219Z,2.63
2019-02-15T06:29:52.377Z,2.65
2019-02-15T06:30:56.959Z,2.65
2019-02-15T06:32:01.468Z,2.66
2019-02-15T06:33:05.429Z,2.68
2019-02-15T06:34:09.250Z,2.69
2019-02-15T06:35:13.073Z,2.71
2019-02-15T06:36:17.249Z,2.72
2019-02-15T06:37:21.069Z,2.75
2019-02-15T06:38:34.229Z,2.76
2019-02-15T06:39:30.786Z,2.76
2019-02-15T06:40:34.610Z,2.78
2019-02-15T06:41:38.508Z,2.81
2019-02-15T06:42:42.542Z,2.75
2019-02-15T06:43:46.384Z,2.74
2019-02-15T06:44:50.197Z,2.73
2019-02-15T06:45:54.008Z,2.73
2019-02-15T06:46:58.589Z,2.74
2019-02-15T06:48:02.694Z,2.75
2019-02-15T06:49:06.773Z,2.76
2019-02-15T06:50:10.654Z,2.77
2019-02-15T06:51:14.714Z,2.77
2019-02-15T06:52:18.766Z,2.79
2019-02-15T06:53:22.818Z,2.79
2019-02-15T06:54:26.637Z,2.81
2019-02-15T06:55:30.445Z,2.82
2019-02-15T06:56:34.357Z,2.84
2019-02-15T06:57:38.191Z,2.85
2019-02-15T06:58:55.732Z,2.87
2019-02-15T07:00:20.841Z,2.89
2019-02-15T07:01:31.643Z,2.90
2019-02-15T07:02:44.733Z,2.92
2019-02-15T07:04:16.695Z,2.93
2019-02-15T07:05:29.445Z,2.94
2019-02-15T07:06:33.576Z,2.95
2019-02-15T07:07:38.163Z,2.95
2019-02-15T07:08:41.972Z,2.96
2019-02-15T07:09:46.039Z,2.95
2019-02-15T07:10:50.236Z,2.96
2019-02-15T07:11:54.279Z,2.97
2019-02-15T07:12:58.340Z,2.98
2019-02-15T07:14:02.641Z,2.97
2019-02-15T07:15:07.468Z,3.00
2019-02-15T07:16:11.358Z,3.00
2019-02-15T07:17:15.165Z,3.00
2019-02-15T07:18:19.145Z,3.00
2019-02-15T07:19:23.294Z,3.01
2019-02-15T07:20:27.122Z,3.01
2019-02-15T07:21:30.941Z,3.03
2019-02-15T07:22:34.783Z,3.04
2019-02-15T07:23:38.916Z,3.05
2019-02-15T07:24:42.726Z,3.07
2019-02-15T07:25:46.571Z,3.09
2019-02-15T07:26:50.792Z,3.10
2019-02-15T07:27:54.616Z,3.12
2019-02-15T07:28:59.424Z,3.15
2019-02-15T07:30:03.920Z,3.15
2019-02-15T07:31:08.287Z,3.15
2019-02-15T07:32:12.092Z,3.14
2019-02-15T07:33:16.436Z,3.15
2019-02-15T07:34:20.430Z,3.15
2019-02-15T07:35:24.536Z,3.17
2019-02-15T07:36:28.371Z,3.20
2019-02-15T07:37:32.603Z,3.22
2019-02-15T07:38:36.745Z,3.29
2019-02-15T07:39:40.561Z,3.25
2019-02-15T07:40:44.645Z,3.25
2019-02-15T07:41:48.753Z,3.28
2019-02-15T07:42:52.603Z,3.27
2019-02-15T07:43:56.769Z,3.28
2019-02-15T07:45:01.272Z,3.26
2019-02-15T07:46:05.517Z,3.24
2019-02-15T07:47:09.357Z,3.31
2019-02-15T07:48:13.475Z,3.30
2019-02-15T07:49:26.436Z,3.31
2019-02-15T07:50:23.518Z,3.25
2019-02-15T07:51:27.345Z,3.22
2019-02-15T07:52:31.157Z,3.22
2019-02-15T07:53:35.625Z,3.24
2019-02-15T07:54:39.830Z,3.22
2019-02-15T07:55:44.369Z,3.22
2019-02-15T07:56:48.605Z,3.23
2019-02-15T07:57:55.260Z,3.24
2019-02-15T07:58:59.183Z,3.25
2019-02-15T08:00:03.138Z,3.25
2019-02-15T08:01:06.979Z,3.27
2019-02-15T08:02:11.150Z,3.29
2019-02-15T08:03:14.977Z,3.31
2019-02-15T08:04:18.793Z,3.32
2019-02-15T08:05:23.585Z,3.33
2019-02-15T08:06:28.246Z,3.33
2019-02-15T08:07:32.411Z,3.35
2019-02-15T08:08:36.859Z,3.35
2019-02-15T08:09:40.757Z,3.37
2019-02-15T08:10:44.710Z,3.39
2019-02-15T08:11:49.174Z,3.40
2019-02-15T08:12:53.015Z,3.45
2019-02-15T08:13:56.847Z,3.47
2019-02-15T08:15:00.757Z,3.50
2019-02-15T08:16:04.973Z,3.52
2019-02-15T08:17:08.894Z,3.50
2019-02-15T08:18:13.211Z,3.48
2019-02-15T08:19:17.349Z,3.49
2019-02-15T08:20:21.501Z,3.56
2019-02-15T08:21:26.143Z,3.51
2019-02-15T08:22:30.466Z,3.53
2019-02-15T08:23:34.285Z,3.53
2019-02-15T08:24:38.380Z,3.58
2019-02-15T08:25:42.523Z,3.63
2019-02-15T08:26:46.440Z,3.63
2019-02-15T08:27:50.323Z,3.62
2019-02-15T08:28:54.648Z,3.61
2019-02-15T08:29:59.192Z,3.64
2019-02-15T08:31:03.410Z,3.67
2019-02-15T08:32:07.410Z,3.66
2019-02-15T08:33:11.255Z,3.72
2019-02-15T08:34:15.089Z,3.72
2019-02-15T08:35:18.921Z,3.78
2019-02-15T08:36:23.022Z,3.81
2019-02-15T08:37:27.618Z,3.83
2019-02-15T08:38:31.990Z,3.88
2019-02-15T08:39:36.927Z,3.91
2019-02-15T08:40:40.764Z,3.92
2019-02-15T08:42:00.560Z,3.90
2019-02-15T08:42:51.069Z,3.92
2019-02-15T08:43:55.137Z,3.92
2019-02-15T08:44:59.067Z,3.96
2019-02-15T08:46:03.474Z,4.01
2019-02-15T08:47:07.766Z,4.04
2019-02-15T08:48:11.857Z,4.03
2019-02-15T08:49:15.772Z,4.03
2019-02-15T08:50:19.856Z,4.08
2019-02-15T08:51:24.282Z,4.10
2019-02-15T08:52:28.407Z,4.11
2019-02-15T08:53:33.098Z,4.11
2019-02-15T08:54:37.007Z,4.09
2019-02-15T08:55:40.976Z,4.18
2019-02-15T08:56:44.914Z,4.18
2019-02-15T08:57:48.851Z,4.27
2019-02-15T08:58:53.303Z,4.27
2019-02-15T08:59:57.203Z,4.28
2019-02-15T09:01:01.040Z,4.32
2019-02-15T09:02:09.736Z,4.33
2019-02-15T09:03:14.220Z,4.33
2019-02-15T09:04:19.172Z,4.37
2019-02-15T09:05:23.658Z,4.42
2019-02-15T09:06:27.969Z,4.47
2019-02-15T09:07:32.723Z,4.47
2019-02-15T09:08:36.611Z,4.50
2019-02-15T09:09:40.919Z,4.55
2019-02-15T09:10:44.818Z,4.67
2019-02-15T09:11:49.038Z,4.68
2019-02-15T09:12:52.943Z,4.72
2019-02-15T09:13:57.100Z,4.80
2019-02-15T09:15:01.015Z,4.86
2019-02-15T09:16:10.448Z,4.82
2019-02-15T09:17:11.192Z,4.82
2019-02-15T09:18:15.093Z,4.83
2019-02-15T09:19:19.557Z,4.86
2019-02-15T09:20:23.807Z,4.90
2019-02-15T09:21:27.631Z,4.92
2019-02-15T09:22:31.456Z,4.95
2019-02-15T09:23:35.764Z,5.05
2019-02-15T09:24:39.989Z,5.10
2019-02-15T09:25:44.239Z,5.11
2019-02-15T09:26:48.345Z,5.13
2019-02-15T09:28:14.211Z,5.17
2019-02-15T09:29:18.399Z,5.23
2019-02-15T09:30:22.604Z,5.26
2019-02-15T09:31:26.512Z,5.30
2019-02-15T09:32:31.024Z,5.33
2019-02-15T09:33:35.075Z,5.37
2019-02-15T09:34:39.285Z,5.40
2019-02-15T09:35:43.633Z,5.47
2019-02-15T09:36:48.052Z,5.49
2019-02-15T09:37:52.163Z,5.53
2019-02-15T09:38:56.367Z,5.59
2019-02-15T09:40:00.299Z,5.61
2019-02-15T09:41:04.272Z,5.68
2019-02-15T09:42:08.748Z,5.77
2019-02-15T09:43:12.652Z,5.84
2019-02-15T09:44:16.728Z,5.87
2019-02-15T09:45:20.556Z,5.91
2019-02-15T09:46:24.372Z,5.93
2019-02-15T09:47:28.384Z,5.92
2019-02-15T09:48:32.208Z,5.95
2019-02-15T09:49:36.116Z,5.98
2019-02-15T09:50:40.442Z,5.99
2019-02-15T09:51:44.345Z,6.06
2019-02-15T09:52:48.375Z,6.08
2019-02-15T09:53:52.276Z,6.14
2019-02-15T09:54:56.777Z,6.19
2019-02-15T09:56:00.607Z,6.18
2019-02-15T09:57:04.822Z,6.25
2019-02-15T09:58:09.212Z,6.33
2019-02-15T09:59:13.782Z,6.32
2019-02-15T10:00:18.192Z,6.36
2019-02-15T10:01:22.384Z,6.40
2019-02-15T10:02:26.232Z,6.47
2019-02-15T10:03:30.511Z,6.47
2019-02-15T10:04:35.101Z,6.50
2019-02-15T10:05:39.797Z,6.52
2019-02-15T10:06:43.926Z,6.59
2019-02-15T10:07:48.068Z,6.63
2019-02-15T10:08:51.883Z,6.68
2019-02-15T10:09:56.683Z,6.74
2019-02-15T10:11:00.953Z,6.74
2019-02-15T10:12:05.219Z,6.78
2019-02-15T10:13:09.622Z,6.82
2019-02-15T10:14:14.318Z,6.86
2019-02-15T10:15:18.501Z,6.89
2019-02-15T10:16:29.703Z,6.96
2019-02-15T10:17:29.095Z,6.99
2019-02-15T10:18:33.044Z,7.06
2019-02-15T10:19:38.002Z,7.21
2019-02-15T10:20:42.417Z,7.19
2019-02-15T10:21:47.350Z,7.33
2019-02-15T10:22:51.230Z,7.33
2019-02-15T10:23:55.360Z,7.31
2019-02-15T10:24:59.644Z,7.41
2019-02-15T10:26:03.578Z,7.42
2019-02-15T10:27:07.773Z,7.43
2019-02-15T10:28:12.499Z,7.48
2019-02-15T10:29:16.918Z,7.56
2019-02-15T10:30:20.867Z,7.57
2019-02-15T10:31:25.237Z,7.59
2019-02-15T10:32:29.139Z,7.64
2019-02-15T10:33:33.719Z,7.75
2019-02-15T10:34:38.078Z,7.73
2019-02-15T10:35:42.234Z,7.75
2019-02-15T10:36:46.644Z,7.77
2019-02-15T10:37:50.578Z,7.82
2019-02-15T10:38:54.509Z,7.96
2019-02-15T10:39:58.948Z,7.94
2019-02-15T10:41:03.292Z,7.93
2019-02-15T10:42:07.560Z,7.97
2019-02-15T10:43:11.842Z,8.00
2019-02-15T10:44:17.413Z,8.06
2019-02-15T10:45:21.358Z,8.09
2019-02-15T10:46:25.295Z,8.15
2019-02-15T10:47:29.619Z,8.17
2019-02-15T10:48:33.634Z,8.20
2019-02-15T10:49:37.940Z,8.23
2019-02-15T10:50:42.132Z,8.31
2019-02-15T10:51:46.223Z,8.30
2019-02-15T10:52:50.484Z,8.34
2019-02-15T10:53:54.825Z,8.35
2019-02-15T10:54:59.148Z,8.38
2019-02-15T10:56:03.285Z,8.43
2019-02-15T10:57:07.566Z,8.47
2019-02-15T10:58:12.098Z,8.52
2019-02-15T10:59:15.916Z,8.58
2019-02-15T11:00:20.394Z,8.60
2019-02-15T11:01:24.676Z,8.62
2019-02-15T11:02:28.507Z,8.67
2019-02-15T11:03:32.742Z,8.75
2019-02-15T11:04:37.017Z,8.75
2019-02-15T11:05:41.217Z,8.78
2019-02-15T11:06:45.135Z,8.80
2019-02-15T11:07:49.156Z,8.80
2019-02-15T11:08:53.531Z,8.84
2019-02-15T11:09:57.506Z,8.93
2019-02-15T11:11:01.901Z,9.09
2019-02-15T11:12:05.739Z,9.08
2019-02-15T11:13:09.939Z,9.10
2019-02-15T11:14:13.916Z,9.12
2019-02-15T11:15:18.354Z,9.13
2019-02-15T11:16:22.261Z,9.23
2019-02-15T11:17:26.449Z,9.37
2019-02-15T11:18:30.607Z,9.43
2019-02-15T11:19:34.553Z,9.43
2019-02-15T11:20:39.172Z,9.37
2019-02-15T11:21:43.664Z,9.39
2019-02-15T11:22:48.612Z,9.47
2019-02-15T11:23:53.182Z,9.46
2019-02-15T11:24:58.335Z,9.59
2019-02-15T11:26:04.459Z,9.67
2019-02-15T11:27:08.611Z,9.62
2019-02-15T11:28:12.485Z,9.61
2019-02-15T11:29:16.791Z,9.65
2019-02-15T11:30:20.749Z,9.70
2019-02-15T11:31:24.945Z,9.71
2019-02-15T11:32:28.848Z,9.75
2019-02-15T11:33:32.948Z,9.84
2019-02-15T11:34:36.769Z,9.89
2019-02-15T11:35:40.828Z,9.91
2019-02-15T11:36:44.747Z,9.95
2019-02-15T11:37:48.574Z,9.96
2019-02-15T11:38:52.717Z,10.03
2019-02-15T11:39:56.826Z,10.02
2019-02-15T11:41:00.731Z,10.14
2019-02-15T11:42:04.644Z,10.21
2019-02-15T11:43:08.725Z,10.26
2019-02-15T11:44:13.032Z,10.30
2019-02-15T11:45:17.440Z,10.30
2019-02-15T11:46:21.682Z,10.37
2019-02-15T11:47:26.259Z,10.43
2019-02-15T11:48:30.468Z,10.49
2019-02-15T11:49:34.879Z,10.54
2019-02-15T11:50:39.010Z,10.46
2019-02-15T11:51:42.917Z,10.44
2019-02-15T11:52:47.078Z,10.45
2019-02-15T11:53:51.031Z,10.49
2019-02-15T11:54:55.500Z,10.61
2019-02-15T11:55:59.658Z,10.65
2019-02-15T11:57:03.730Z,10.64
2019-02-15T11:58:07.910Z,10.72
2019-02-15T11:59:12.010Z,10.68
2019-02-15T12:00:20.375Z,10.82
2019-02-15T12:01:23.917Z,10.83
2019-02-15T12:02:27.779Z,10.80
2019-02-15T12:03:31.604Z,10.87
2019-02-15T12:04:35.952Z,10.92
2019-02-15T12:05:39.836Z,10.85
2019-02-15T12:06:43.751Z,10.87
2019-02-15T12:07:47.628Z,10.92
2019-02-15T12:08:51.445Z,10.94
2019-02-15T12:09:55.609Z,10.98
2019-02-15T12:10:59.550Z,10.99
2019-02-15T12:12:10.372Z,11.00
2019-02-15T12:13:09.375Z,11.04
2019-02-15T12:14:13.433Z,11.07
2019-02-15T12:15:17.538Z,11.09
2019-02-15T12:16:21.344Z,11.16
2019-02-15T12:17:25.168Z,11.04
2019-02-15T12:18:29.095Z,11.28
2019-02-15T12:19:33.109Z,11.33
2019-02-15T12:20:36.915Z,11.38
2019-02-15T12:21:40.724Z,11.40
2019-02-15T12:22:44.547Z,11.40
2019-02-15T12:23:48.359Z,11.43
2019-02-15T12:24:52.166Z,11.46
2019-02-15T12:25:56.383Z,11.48
2019-02-15T12:27:00.290Z,11.51
2019-02-15T12:28:04.205Z,11.53
2019-02-15T12:29:08.021Z,11.55
2019-02-15T12:30:12.297Z,11.62
2019-02-15T12:31:16.187Z,11.61
2019-02-15T12:32:20.709Z,11.64
2019-02-15T12:33:24.483Z,11.66
2019-02-15T12:34:28.652Z,11.69
2019-02-15T12:35:32.476Z,11.71
2019-02-15T12:36:36.653Z,11.73
2019-02-15T12:37:40.561Z,11.78
2019-02-15T12:38:44.861Z,11.84
2019-02-15T12:39:49.041Z,11.84
2019-02-15T12:40:53.172Z,11.87
2019-02-15T12:41:57.109Z,11.90
2019-02-15T12:43:00.959Z,11.91
2019-02-15T12:44:04.927Z,11.96
2019-02-15T12:45:09.684Z,11.98
2019-02-15T12:46:13.577Z,12.02
2019-02-15T12:47:17.790Z,12.07
2019-02-15T12:48:21.625Z,12.08
2019-02-15T12:49:25.475Z,12.12
2019-02-15T12:50:29.370Z,12.19
2019-02-15T12:51:33.215Z,12.21
2019-02-15T12:52:37.018Z,12.20
2019-02-15T12:53:40.925Z,12.20
2019-02-15T12:54:44.788Z,12.23
2019-02-15T12:55:48.624Z,12.25
2019-02-15T12:56:52.453Z,12.29
2019-02-15T12:57:58.360Z,12.31
2019-02-15T12:59:02.189Z,12.33
2019-02-15T13:00:07.950Z,12.34
2019-02-15T13:01:12.060Z,12.36
2019-02-15T13:02:17.167Z,12.38
2019-02-15T13:03:21.695Z,12.42
2019-02-15T13:04:25.797Z,12.43
2019-02-15T13:05:30.127Z,12.47
2019-02-15T13:06:34.129Z,12.48
2019-02-15T13:07:38.321Z,12.52
2019-02-15T13:08:42.656Z,12.56
2019-02-15T13:09:46.560Z,12.66
2019-02-15T13:10:51.260Z,12.64
2019-02-15T13:11:55.228Z,12.66
2019-02-15T13:12:59.076Z,12.67
2019-02-15T13:14:03.000Z,12.70
2019-02-15T13:15:07.712Z,12.71
2019-02-15T13:16:11.647Z,12.74
2019-02-15T13:17:24.167Z,12.76
2019-02-15T13:18:21.705Z,12.80
2019-02-15T13:19:26.218Z,12.83
2019-02-15T13:20:30.188Z,12.82
2019-02-15T13:21:34.089Z,12.84
2019-02-15T13:22:38.224Z,12.85
2019-02-15T13:23:42.072Z,12.88
2019-02-15T13:24:45.910Z,12.91
2019-02-15T13:25:50.227Z,12.90
2019-02-15T13:26:54.411Z,12.91
2019-02-15T13:27:58.714Z,12.92
2019-02-15T13:29:02.631Z,12.95
2019-02-15T13:30:07.571Z,12.96
2019-02-15T13:31:11.884Z,12.99
2019-02-15T13:32:15.750Z,13.02
2019-02-15T13:33:20.003Z,13.04
2019-02-15T13:34:23.893Z,13.05
2019-02-15T13:35:27.849Z,13.07
2019-02-15T13:36:31.979Z,13.08
2019-02-15T13:37:36.073Z,13.10
2019-02-15T13:38:39.931Z,13.12
2019-02-15T13:39:43.766Z,13.13
2019-02-15T13:40:47.606Z,13.14
2019-02-15T13:41:52.077Z,13.15
2019-02-15T13:42:55.910Z,13.18
2019-02-15T13:44:00.076Z,13.17
2019-02-15T13:45:04.201Z,13.17
2019-02-15T13:46:08.601Z,13.19
2019-02-15T13:47:12.437Z,13.19
2019-02-15T13:48:16.689Z,13.20
2019-02-15T13:49:20.618Z,13.21
2019-02-15T13:50:24.812Z,13.22
2019-02-15T13:51:28.628Z,13.23
2019-02-15T13:52:32.841Z,13.24
2019-02-15T13:53:37.676Z,13.26
2019-02-15T13:54:42.584Z,13.27
2019-02-15T13:55:46.619Z,13.28
2019-02-15T13:56:50.429Z,13.31
2019-02-15T13:57:54.495Z,13.31
2019-02-15T13:58:58.696Z,13.34
2019-02-15T14:00:02.604Z,13.34
2019-02-15T14:01:06.429Z,13.34
2019-02-15T14:02:10.319Z,13.35
2019-02-15T14:03:14.138Z,13.38
2019-02-15T14:04:17.966Z,13.38
2019-02-15T14:05:21.812Z,13.39
2019-02-15T14:06:25.967Z,13.41
2019-02-15T14:07:30.033Z,13.42
2019-02-15T14:08:34.096Z,13.44
2019-02-15T14:09:37.929Z,13.45
2019-02-15T14:10:41.797Z,13.46
2019-02-15T14:11:45.614Z,13.46
2019-02-15T14:12:49.733Z,13.47
2019-02-15T14:13:54.301Z,13.46
2019-02-15T14:14:58.127Z,13.47
2019-02-15T14:16:01.942Z,13.47
2019-02-15T14:17:05.906Z,13.47
2019-02-15T14:18:10.052Z,13.49
2019-02-15T14:19:14.260Z,13.50
2019-02-15T14:20:18.518Z,13.50
2019-02-15T14:21:22.671Z,13.51